sensor_id;sensor_type;location;lat;lon;timestamp;pressure;altitude;pressure_sealevel;temperature;humidity
56944;BME280;42848;42.524;12.052;2023-01-27T00:00:53;95720.41;;;1.80;100.00
56944;BME280;42848;42.524;12.052;2023-01-27T00:03:19;95704.94;;;1.77;100.00
56944;BME280;42848;42.524;12.052;2023-01-27T00:05:45;95710.88;;;1.74;100.00
56944;BME280;42848;42.524;12.052;2023-01-27T00:08:11;95697.75;;;1.73;100.00
56944;BME280;42848;42.524;12.052;2023-01-27T00:10:37;95715.34;;;1.79;100.00
56944;BME280;42848;42.524;12.052;2023-01-27T00:13:03;95697.41;;;1.79;100.00
56944;BME280;42848;42.524;12.052;2023-01-27T00:15:47;95700.19;;;1.74;100.00
56944;BME280;42848;42.524;12.052;2023-01-27T00:18:12;95695.63;;;1.75;100.00
56944;BME280;42848;42.524;12.052;2023-01-27T00:20:38;95703.34;;;1.76;100.00
56944;BME280;42848;42.524;12.052;2023-01-27T00:23:24;95700.72;;;1.71;100.00
56944;BME280;42848;42.524;12.052;2023-01-27T00:26:11;95700.72;;;1.71;100.00
56944;BME280;42848;42.524;12.052;2023-01-27T00:28:38;95697.09;;;1.62;100.00
56944;BME280;42848;42.524;12.052;2023-01-27T00:31:06;95697.56;;;1.69;100.00
56944;BME280;42848;42.524;12.052;2023-01-27T00:33:33;95697.56;;;1.69;100.00
56944;BME280;42848;42.524;12.052;2023-01-27T00:36:04;95684.03;;;1.60;100.00
56944;BME280;42848;42.524;12.052;2023-01-27T00:38:32;95679.19;;;1.62;100.00
56944;BME280;42848;42.524;12.052;2023-01-27T00:40:58;95695.53;;;1.61;100.00
56944;BME280;42848;42.524;12.052;2023-01-27T00:43:42;95685.31;;;1.63;100.00
56944;BME280;42848;42.524;12.052;2023-01-27T00:46:08;95680.06;;;1.58;100.00
56944;BME280;42848;42.524;12.052;2023-01-27T00:48:34;95686.91;;;1.64;100.00
56944;BME280;42848;42.524;12.052;2023-01-27T00:51:00;95692.94;;;1.56;100.00
56944;BME280;42848;42.524;12.052;2023-01-27T00:53:26;95681.66;;;1.59;100.00
56944;BME280;42848;42.524;12.052;2023-01-27T00:55:51;95672.25;;;1.61;100.00
56944;BME280;42848;42.524;12.052;2023-01-27T00:58:17;95682.72;;;1.58;100.00
56944;BME280;42848;42.524;12.052;2023-01-27T01:00:43;95687.56;;;1.56;100.00
56944;BME280;42848;42.524;12.052;2023-01-27T01:03:09;95679.56;;;1.56;100.00
56944;BME280;42848;42.524;12.052;2023-01-27T01:05:35;95687.13;;;1.49;100.00
56944;BME280;42848;42.524;12.052;2023-01-27T01:08:01;95694.50;;;1.57;100.00
56944;BME280;42848;42.524;12.052;2023-01-27T01:10:26;95687.56;;;1.56;100.00
56944;BME280;42848;42.524;12.052;2023-01-27T01:12:52;95682.22;;;1.56;100.00
56944;BME280;42848;42.524;12.052;2023-01-27T01:15:18;95688.72;;;1.50;100.00
56944;BME280;42848;42.524;12.052;2023-01-27T01:17:43;95681.16;;;1.57;100.00
56944;BME280;42848;42.524;12.052;2023-01-27T01:20:09;95677.28;;;1.63;100.00
56944;BME280;42848;42.524;12.052;2023-01-27T01:22:35;95700.38;;;1.59;100.00
56944;BME280;42848;42.524;12.052;2023-01-27T01:25:01;95680.56;;;1.60;100.00
56944;BME280;42848;42.524;12.052;2023-01-27T01:27:26;95682.72;;;1.58;100.00
56944;BME280;42848;42.524;12.052;2023-01-27T01:29:53;95678.09;;;1.63;100.00
56944;BME280;42848;42.524;12.052;2023-01-27T01:32:19;95676.88;;;1.56;100.00
56944;BME280;42848;42.524;12.052;2023-01-27T01:34:45;95675.63;;;1.48;100.00
56944;BME280;42848;42.524;12.052;2023-01-27T01:37:10;95669.41;;;1.53;100.00
56944;BME280;42848;42.524;12.052;2023-01-27T01:39:36;95664.56;;;1.55;100.00
56944;BME280;42848;42.524;12.052;2023-01-27T01:42:02;95675.84;;;1.52;100.00
56944;BME280;42848;42.524;12.052;2023-01-27T01:44:30;95675.25;;;1.55;100.00
56944;BME280;42848;42.524;12.052;2023-01-27T01:46:56;95667.81;;;1.52;100.00
56944;BME280;42848;42.524;12.052;2023-01-27T01:49:28;95668.91;;;1.51;100.00
56944;BME280;42848;42.524;12.052;2023-01-27T01:52:02;95675.41;;;1.45;100.00
56944;BME280;42848;42.524;12.052;2023-01-27T01:54:34;95668.69;;;1.47;100.00
56944;BME280;42848;42.524;12.052;2023-01-27T01:57:15;95676.44;;;1.49;100.00
56944;BME280;42848;42.524;12.052;2023-01-27T02:00:05;95666.09;;;1.42;100.00
56944;BME280;42848;42.524;12.052;2023-01-27T02:02:32;95667.66;;;1.43;100.00
56944;BME280;42848;42.524;12.052;2023-01-27T02:05:07;95680.47;;;1.46;100.00
56944;BME280;42848;42.524;12.052;2023-01-27T02:07:41;95665.22;;;1.47;100.00
56944;BME280;42848;42.524;12.052;2023-01-27T02:10:10;95653.00;;;1.40;100.00
56944;BME280;42848;42.524;12.052;2023-01-27T02:12:37;95657.22;;;1.47;100.00
56944;BME280;42848;42.524;12.052;2023-01-27T02:15:04;95675.19;;;1.41;100.00
56944;BME280;42848;42.524;12.052;2023-01-27T02:17:30;95656.75;;;1.39;100.00
56944;BME280;42848;42.524;12.052;2023-01-27T02:26:01;95647.41;;;1.37;100.00
56944;BME280;42848;42.524;12.052;2023-01-27T02:28:30;95649.38;;;1.31;100.00
56944;BME280;42848;42.524;12.052;2023-01-27T02:30:57;95659.50;;;1.34;100.00
56944;BME280;42848;42.524;12.052;2023-01-27T02:33:23;95650.75;;;1.29;100.00
56944;BME280;42848;42.524;12.052;2023-01-27T02:36:08;95650.47;;;1.30;100.00
56944;BME280;42848;42.524;12.052;2023-01-27T02:38:43;95647.63;;;1.22;100.00
56944;BME280;42848;42.524;12.052;2023-01-27T02:43:48;95654.50;;;1.28;100.00
56944;BME280;42848;42.524;12.052;2023-01-27T02:46:14;95654.84;;;1.21;100.00
56944;BME280;42848;42.524;12.052;2023-01-27T02:48:40;95645.88;;;1.12;100.00
56944;BME280;42848;42.524;12.052;2023-01-27T02:51:05;95643.38;;;1.21;100.00
56944;BME280;42848;42.524;12.052;2023-01-27T02:53:31;95637.78;;;1.17;100.00
56944;BME280;42848;42.524;12.052;2023-01-27T02:55:57;95636.19;;;1.16;100.00
56944;BME280;42848;42.524;12.052;2023-01-27T02:58:23;95625.22;;;1.18;100.00
56944;BME280;42848;42.524;12.052;2023-01-27T03:00:48;95630.34;;;1.14;100.00
56944;BME280;42848;42.524;12.052;2023-01-27T03:03:14;95627.69;;;1.14;100.00
56944;BME280;42848;42.524;12.052;2023-01-27T03:05:40;95635.66;;;1.19;100.00
56944;BME280;42848;42.524;12.052;2023-01-27T03:08:06;95633.59;;;1.11;100.00
56944;BME280;42848;42.524;12.052;2023-01-27T03:10:32;95631.78;;;1.06;100.00
56944;BME280;42848;42.524;12.052;2023-01-27T03:12:57;95632.03;;;1.10;100.00
56944;BME280;42848;42.524;12.052;2023-01-27T03:15:23;95630.41;;;1.09;100.00
56944;BME280;42848;42.524;12.052;2023-01-27T03:18:09;95636.31;;;1.06;100.00
56944;BME280;42848;42.524;12.052;2023-01-27T03:20:39;95623.25;;;1.04;100.00
56944;BME280;42848;42.524;12.052;2023-01-27T03:23:05;95623.03;;;1.01;100.00
56944;BME280;42848;42.524;12.052;2023-01-27T03:25:31;95606.47;;;0.99;100.00
56944;BME280;42848;42.524;12.052;2023-01-27T03:27:56;95613.94;;;1.02;100.00
56944;BME280;42848;42.524;12.052;2023-01-27T03:30:22;95622.59;;;0.94;100.00
56944;BME280;42848;42.524;12.052;2023-01-27T03:32:48;95607.00;;;1.01;100.00
56944;BME280;42848;42.524;12.052;2023-01-27T03:35:15;95604.97;;;0.93;100.00
56944;BME280;42848;42.524;12.052;2023-01-27T03:37:42;95605.47;;;0.95;100.00
56944;BME280;42848;42.524;12.052;2023-01-27T03:40:26;95603.44;;;0.87;100.00
56944;BME280;42848;42.524;12.052;2023-01-27T03:43:11;95623.72;;;0.88;100.00
56944;BME280;42848;42.524;12.052;2023-01-27T03:45:55;95613.63;;;0.84;100.00
56944;BME280;42848;42.524;12.052;2023-01-27T03:48:40;95612.44;;;0.91;100.00
56944;BME280;42848;42.524;12.052;2023-01-27T03:51:06;95596.41;;;0.91;100.00
56944;BME280;42848;42.524;12.052;2023-01-27T03:53:34;95600.19;;;0.90;100.00
56944;BME280;42848;42.524;12.052;2023-01-27T03:56:00;95611.44;;;0.87;100.00
56944;BME280;42848;42.524;12.052;2023-01-27T03:58:28;95601.75;;;0.91;100.00
56944;BME280;42848;42.524;12.052;2023-01-27T04:00:57;95598.59;;;0.89;100.00
56944;BME280;42848;42.524;12.052;2023-01-27T04:03:25;95610.81;;;0.95;100.00
56944;BME280;42848;42.524;12.052;2023-01-27T04:06:13;95602.50;;;0.96;100.00
56944;BME280;42848;42.524;12.052;2023-01-27T04:08:58;95603.38;;;0.92;100.00
56944;BME280;42848;42.524;12.052;2023-01-27T04:11:24;95609.72;;;0.96;100.00
56944;BME280;42848;42.524;12.052;2023-01-27T04:14:10;95608.16;;;0.95;100.00
56944;BME280;42848;42.524;12.052;2023-01-27T04:16:36;95630.31;;;0.95;100.00
56944;BME280;42848;42.524;12.052;2023-01-27T04:19:04;95624.63;;;1.02;100.00
56944;BME280;42848;42.524;12.052;2023-01-27T04:21:31;95613.69;;;0.98;100.00
56944;BME280;42848;42.524;12.052;2023-01-27T04:23:58;95614.28;;;0.95;100.00
56944;BME280;42848;42.524;12.052;2023-01-27T04:26:24;95608.94;;;0.95;100.00
56944;BME280;42848;42.524;12.052;2023-01-27T04:28:50;95614.88;;;0.92;100.00
56944;BME280;42848;42.524;12.052;2023-01-27T04:31:16;95624.22;;;0.90;100.00
56944;BME280;42848;42.524;12.052;2023-01-27T04:33:43;95604.44;;;0.91;100.00
56944;BME280;42848;42.524;12.052;2023-01-27T04:36:10;95626.72;;;0.81;100.00
56944;BME280;42848;42.524;12.052;2023-01-27T04:38:40;95610.94;;;0.84;100.00
56944;BME280;42848;42.524;12.052;2023-01-27T04:41:06;95611.28;;;0.78;100.00
56944;BME280;42848;42.524;12.052;2023-01-27T04:43:31;95609.84;;;0.85;100.00
56944;BME280;42848;42.524;12.052;2023-01-27T04:45:57;95603.13;;;0.88;100.00
56944;BME280;42848;42.524;12.052;2023-01-27T04:48:23;95598.38;;;0.85;100.00
56944;BME280;42848;42.524;12.052;2023-01-27T04:50:48;95611.91;;;0.94;100.00
56944;BME280;42848;42.524;12.052;2023-01-27T04:53:14;95595.41;;;0.87;100.00
56944;BME280;42848;42.524;12.052;2023-01-27T04:55:42;95604.50;;;0.85;100.00
56944;BME280;42848;42.524;12.052;2023-01-27T04:58:11;95587.91;;;0.89;100.00
56944;BME280;42848;42.524;12.052;2023-01-27T05:00:37;95606.06;;;0.92;100.00
56944;BME280;42848;42.524;12.052;2023-01-27T05:03:03;95589.50;;;0.90;100.00
56944;BME280;42848;42.524;12.052;2023-01-27T05:05:31;95603.94;;;0.89;100.00
56944;BME280;42848;42.524;12.052;2023-01-27T05:08:04;95598.03;;;0.92;100.00
56944;BME280;42848;42.524;12.052;2023-01-27T05:10:31;95598.03;;;0.92;100.00
56944;BME280;42848;42.524;12.052;2023-01-27T05:12:57;95591.88;;;0.91;100.00
56944;BME280;42848;42.524;12.052;2023-01-27T05:15:23;95600.34;;;0.98;100.00
56944;BME280;42848;42.524;12.052;2023-01-27T05:17:49;95599.03;;;0.96;100.00
56944;BME280;42848;42.524;12.052;2023-01-27T05:20:15;95600.72;;;0.92;100.00
56944;BME280;42848;42.524;12.052;2023-01-27T05:22:41;95590.75;;;0.97;100.00
56944;BME280;42848;42.524;12.052;2023-01-27T05:25:07;95600.34;;;0.98;100.00
56944;BME280;42848;42.524;12.052;2023-01-27T05:27:34;95631.06;;;1.01;100.00
56944;BME280;42848;42.524;12.052;2023-01-27T05:29:59;95595.75;;;1.04;100.00
56944;BME280;42848;42.524;12.052;2023-01-27T05:32:26;95607.56;;;0.98;100.00
56944;BME280;42848;42.524;12.052;2023-01-27T05:34:51;95605.41;;;1.00;100.00
56944;BME280;42848;42.524;12.052;2023-01-27T05:37:17;95600.06;;;1.00;100.00
56944;BME280;42848;42.524;12.052;2023-01-27T05:39:43;95607.00;;;1.01;100.00
56944;BME280;42848;42.524;12.052;2023-01-27T05:42:08;95628.16;;;0.97;100.00
56944;BME280;42848;42.524;12.052;2023-01-27T05:44:34;95620.91;;;0.98;100.00
56944;BME280;42848;42.524;12.052;2023-01-27T05:47:00;95608.66;;;0.97;100.00
56944;BME280;42848;42.524;12.052;2023-01-27T05:49:26;95605.47;;;0.95;100.00
56944;BME280;42848;42.524;12.052;2023-01-27T05:51:52;95623.09;;;0.96;100.00
56944;BME280;42848;42.524;12.052;2023-01-27T05:54:18;95629.53;;;0.95;100.00
56944;BME280;42848;42.524;12.052;2023-01-27T05:56:43;95617.78;;;0.91;100.00
56944;BME280;42848;42.524;12.052;2023-01-27T05:59:09;95618.03;;;0.94;100.00
56944;BME280;42848;42.524;12.052;2023-01-27T06:01:35;95627.13;;;0.93;100.00
56944;BME280;42848;42.524;12.052;2023-01-27T06:04:04;95627.13;;;0.93;100.00
56944;BME280;42848;42.524;12.052;2023-01-27T06:06:32;95617.75;;;0.96;100.00
56944;BME280;42848;42.524;12.052;2023-01-27T06:08:58;95638.78;;;1.02;100.00
56944;BME280;42848;42.524;12.052;2023-01-27T06:11:25;95627.94;;;0.94;100.00
56944;BME280;42848;42.524;12.052;2023-01-27T06:13:52;95624.75;;;0.92;100.00
56944;BME280;42848;42.524;12.052;2023-01-27T06:16:19;95628.47;;;0.91;100.00
56944;BME280;42848;42.524;12.052;2023-01-27T06:18:46;95627.97;;;0.89;100.00
56944;BME280;42848;42.524;12.052;2023-01-27T06:21:12;95639.75;;;0.88;100.00
56944;BME280;42848;42.524;12.052;2023-01-27T06:23:39;95643.47;;;0.92;100.00
56944;BME280;42848;42.524;12.052;2023-01-27T06:26:09;95651.22;;;0.88;100.00
56944;BME280;42848;42.524;12.052;2023-01-27T06:28:36;95640.78;;;0.92;100.00
56944;BME280;42848;42.524;12.052;2023-01-27T06:33:32;95634.06;;;0.94;100.00
56944;BME280;42848;42.524;12.052;2023-01-27T06:36:06;95627.69;;;0.90;100.00
56944;BME280;42848;42.524;12.052;2023-01-27T06:38:33;95641.63;;;0.87;100.00
56944;BME280;42848;42.524;12.052;2023-01-27T06:40:59;95656.81;;;0.92;100.00
56944;BME280;42848;42.524;12.052;2023-01-27T06:43:25;95639.97;;;0.91;100.00
56944;BME280;42848;42.524;12.052;2023-01-27T06:45:52;95634.88;;;0.95;100.00
56944;BME280;42848;42.524;12.052;2023-01-27T06:48:18;95642.81;;;1.00;100.00
56944;BME280;42848;42.524;12.052;2023-01-27T06:50:44;95647.13;;;0.96;100.00
56944;BME280;42848;42.524;12.052;2023-01-27T06:53:10;95661.00;;;0.98;100.00
56944;BME280;42848;42.524;12.052;2023-01-27T06:55:36;95655.16;;;0.96;100.00
56944;BME280;42848;42.524;12.052;2023-01-27T06:58:13;95665.25;;;0.99;100.00
56944;BME280;42848;42.524;12.052;2023-01-27T07:00:39;95657.03;;;0.95;100.00
56944;BME280;42848;42.524;12.052;2023-01-27T07:03:06;95647.88;;;1.01;100.00
56944;BME280;42848;42.524;12.052;2023-01-27T07:05:33;95673.28;;;0.99;100.00
56944;BME280;42848;42.524;12.052;2023-01-27T07:07:59;95668.41;;;1.06;100.00
56944;BME280;42848;42.524;12.052;2023-01-27T07:10:25;95674.88;;;1.00;100.00
56944;BME280;42848;42.524;12.052;2023-01-27T07:12:51;95674.03;;;1.04;100.00
56944;BME280;42848;42.524;12.052;2023-01-27T07:15:17;95679.94;;;1.01;100.00
56944;BME280;42848;42.524;12.052;2023-01-27T07:17:43;95671.56;;;1.08;100.00
56944;BME280;42848;42.524;12.052;2023-01-27T07:20:11;95668.97;;;1.03;100.00
56944;BME280;42848;42.524;12.052;2023-01-27T07:22:38;95672.09;;;1.10;100.00
56944;BME280;42848;42.524;12.052;2023-01-27T07:25:05;95677.38;;;1.15;100.00
56944;BME280;42848;42.524;12.052;2023-01-27T07:27:31;95664.00;;;1.15;100.00
56944;BME280;42848;42.524;12.052;2023-01-27T07:29:57;95677.38;;;1.15;100.00
56944;BME280;42848;42.524;12.052;2023-01-27T07:32:23;95677.75;;;1.27;100.00
56944;BME280;42848;42.524;12.052;2023-01-27T07:34:48;95662.78;;;1.26;100.00
56944;BME280;42848;42.524;12.052;2023-01-27T07:37:14;95666.22;;;1.32;100.00
56944;BME280;42848;42.524;12.052;2023-01-27T07:39:40;95678.59;;;1.47;100.00
56944;BME280;42848;42.524;12.052;2023-01-27T07:42:06;95675.78;;;1.38;100.00
56944;BME280;42848;42.524;12.052;2023-01-27T07:44:32;95672.72;;;1.45;100.00
56944;BME280;42848;42.524;12.052;2023-01-27T07:46:58;95681.78;;;1.49;100.00
56944;BME280;42848;42.524;12.052;2023-01-27T07:49:24;95672.09;;;1.53;100.00
56944;BME280;42848;42.524;12.052;2023-01-27T07:51:50;95667.78;;;1.57;100.00
56944;BME280;42848;42.524;12.052;2023-01-27T07:54:16;95670.84;;;1.64;100.00
56944;BME280;42848;42.524;12.052;2023-01-27T07:56:42;95683.19;;;1.65;100.00
56944;BME280;42848;42.524;12.052;2023-01-27T07:59:09;95677.75;;;1.70;100.00
56944;BME280;42848;42.524;12.052;2023-01-27T08:01:35;95681.44;;;1.74;100.00
56944;BME280;42848;42.524;12.052;2023-01-27T08:04:01;95676.88;;;1.75;100.00
56944;BME280;42848;42.524;12.052;2023-01-27T08:06:26;95688.28;;;1.80;100.00
56944;BME280;42848;42.524;12.052;2023-01-27T08:08:52;95695.47;;;1.85;100.00
56944;BME280;42848;42.524;12.052;2023-01-27T08:11:19;95687.66;;;1.88;100.00
56944;BME280;42848;42.524;12.052;2023-01-27T08:13:45;95685.19;;;1.92;100.00
56944;BME280;42848;42.524;12.052;2023-01-27T08:16:13;95691.06;;;1.94;100.00
56944;BME280;42848;42.524;12.052;2023-01-27T08:18:39;95700.88;;;1.98;100.00
56944;BME280;42848;42.524;12.052;2023-01-27T08:21:08;95695.97;;;2.06;100.00
56944;BME280;42848;42.524;12.052;2023-01-27T08:23:34;95704.28;;;2.04;100.00
56944;BME280;42848;42.524;12.052;2023-01-27T08:26:02;95703.41;;;2.09;100.00
56944;BME280;42848;42.524;12.052;2023-01-27T08:28:29;95693.13;;;2.16;100.00
56944;BME280;42848;42.524;12.052;2023-01-27T08:31:06;95699.50;;;2.20;100.00
56944;BME280;42848;42.524;12.052;2023-01-27T08:33:32;95696.84;;;2.20;100.00
56944;BME280;42848;42.524;12.052;2023-01-27T08:36:08;95693.84;;;2.21;100.00
56944;BME280;42848;42.524;12.052;2023-01-27T08:38:35;95702.09;;;2.25;100.00
56944;BME280;42848;42.524;12.052;2023-01-27T08:41:10;95704.75;;;2.25;100.00
56944;BME280;42848;42.524;12.052;2023-01-27T08:43:36;95716.50;;;2.29;100.00
56944;BME280;42848;42.524;12.052;2023-01-27T08:46:03;95712.06;;;2.38;100.00
56944;BME280;42848;42.524;12.052;2023-01-27T08:48:29;95708.97;;;2.31;100.00
56944;BME280;42848;42.524;12.052;2023-01-27T08:50:56;95706.97;;;2.37;100.00
56944;BME280;42848;42.524;12.052;2023-01-27T08:53:23;95722.69;;;2.43;100.00
56944;BME280;42848;42.524;12.052;2023-01-27T08:55:50;95709.78;;;2.45;100.00
56944;BME280;42848;42.524;12.052;2023-01-27T08:58:16;95713.78;;;2.48;100.00
56944;BME280;42848;42.524;12.052;2023-01-27T09:00:42;95725.31;;;2.48;100.00
56944;BME280;42848;42.524;12.052;2023-01-27T09:03:08;95714.41;;;2.59;100.00
56944;BME280;42848;42.524;12.052;2023-01-27T09:05:35;95716.00;;;2.60;100.00
56944;BME280;42848;42.524;12.052;2023-01-27T09:08:02;95727.63;;;2.69;100.00
56944;BME280;42848;42.524;12.052;2023-01-27T09:10:28;95710.97;;;2.72;100.00
56944;BME280;42848;42.524;12.052;2023-01-27T09:12:54;95722.47;;;2.72;100.00
56944;BME280;42848;42.524;12.052;2023-01-27T09:15:19;95721.59;;;2.77;100.00
56944;BME280;42848;42.524;12.052;2023-01-27T09:17:45;95716.81;;;2.74;100.00
56944;BME280;42848;42.524;12.052;2023-01-27T09:20:12;95730.13;;;2.79;100.00
56944;BME280;42848;42.524;12.052;2023-01-27T09:22:38;95736.00;;;2.81;100.00
56944;BME280;42848;42.524;12.052;2023-01-27T09:25:07;95741.28;;;2.86;100.00
56944;BME280;42848;42.524;12.052;2023-01-27T09:27:33;95737.13;;;2.94;100.00
56944;BME280;42848;42.524;12.052;2023-01-27T09:29:58;95740.91;;;2.93;100.00
56944;BME280;42848;42.524;12.052;2023-01-27T09:32:24;95752.31;;;2.98;100.00
56944;BME280;42848;42.524;12.052;2023-01-27T09:34:50;95732.94;;;3.01;100.00
56944;BME280;42848;42.524;12.052;2023-01-27T09:37:16;95744.19;;;3.03;100.00
56944;BME280;42848;42.524;12.052;2023-01-27T09:39:48;95738.94;;;3.12;100.00
56944;BME280;42848;42.524;12.052;2023-01-27T10:09:57;95758.22;;;3.55;100.00
56944;BME280;42848;42.524;12.052;2023-01-27T10:12:29;95752.19;;;3.50;100.00
56944;BME280;42848;42.524;12.052;2023-01-27T10:18:28;95740.72;;;3.71;100.00
56944;BME280;42848;42.524;12.052;2023-01-27T10:21:07;95747.28;;;3.65;100.00
56944;BME280;42848;42.524;12.052;2023-01-27T10:26:30;95743.72;;;3.70;100.00
56944;BME280;42848;42.524;12.052;2023-01-27T10:29:36;95762.69;;;3.87;100.00
56944;BME280;42848;42.524;12.052;2023-01-27T10:32:26;95741.00;;;3.84;100.00
56944;BME280;42848;42.524;12.052;2023-01-27T10:35:12;95742.72;;;3.80;100.00
56944;BME280;42848;42.524;12.052;2023-01-27T10:40:57;95734.94;;;3.92;100.00
56944;BME280;42848;42.524;12.052;2023-01-27T10:49:03;95721.91;;;3.99;100.00
56944;BME280;42848;42.524;12.052;2023-01-27T10:51:44;95737.50;;;3.97;100.00
56944;BME280;42848;42.524;12.052;2023-01-27T10:54:21;95717.81;;;4.02;100.00
56944;BME280;42848;42.524;12.052;2023-01-27T10:56:56;95739.66;;;4.09;100.00
56944;BME280;42848;42.524;12.052;2023-01-27T10:59:39;95729.22;;;4.07;100.00
56944;BME280;42848;42.524;12.052;2023-01-27T11:04:52;95720.34;;;4.20;100.00
56944;BME280;42848;42.524;12.052;2023-01-27T11:07:21;95740.63;;;4.26;100.00
56944;BME280;42848;42.524;12.052;2023-01-27T11:09:53;95724.97;;;4.28;100.00
56944;BME280;42848;42.524;12.052;2023-01-27T11:12:28;95720.59;;;4.33;100.00
56944;BME280;42848;42.524;12.052;2023-01-27T11:14:55;95734.41;;;4.40;100.00
56944;BME280;42848;42.524;12.052;2023-01-27T11:23:23;95725.75;;;4.43;100.00
56944;BME280;42848;42.524;12.052;2023-01-27T11:25:42;95731.72;;;4.40;100.00
56944;BME280;42848;42.524;12.052;2023-01-27T11:28:19;95743.94;;;4.46;100.00
56944;BME280;42848;42.524;12.052;2023-01-27T11:34:21;95721.22;;;4.52;100.00
56944;BME280;42848;42.524;12.052;2023-01-27T11:36:51;95727.75;;;4.60;100.00
56944;BME280;42848;42.524;12.052;2023-01-27T11:39:16;95726.03;;;4.64;100.00
56944;BME280;42848;42.524;12.052;2023-01-27T11:41:53;95726.84;;;4.64;100.00
56944;BME280;42848;42.524;12.052;2023-01-27T11:44:33;95720.97;;;4.62;100.00
56944;BME280;42848;42.524;12.052;2023-01-27T11:47:00;95713.03;;;4.79;100.00
56944;BME280;42848;42.524;12.052;2023-01-27T11:49:42;95722.50;;;4.77;100.00
56944;BME280;42848;42.524;12.052;2023-01-27T11:52:13;95711.28;;;4.83;100.00
56944;BME280;42848;42.524;12.052;2023-01-27T11:54:48;95719.50;;;4.78;100.00
56944;BME280;42848;42.524;12.052;2023-01-27T11:57:24;95716.56;;;4.89;100.00
56944;BME280;42848;42.524;12.052;2023-01-27T11:59:57;95706.72;;;4.84;100.00
56944;BME280;42848;42.524;12.052;2023-01-27T12:05:43;95701.06;;;4.85;100.00
56944;BME280;42848;42.524;12.052;2023-01-27T12:08:10;95687.44;;;4.91;100.00
56944;BME280;42848;42.524;12.052;2023-01-27T12:10:38;95692.31;;;4.80;100.00
56944;BME280;42848;42.524;12.052;2023-01-27T12:13:23;95697.81;;;5.06;100.00
56944;BME280;42848;42.524;12.052;2023-01-27T12:15:59;95688.03;;;5.10;100.00
56944;BME280;42848;42.524;12.052;2023-01-27T12:18:31;95681.06;;;5.09;100.00
56944;BME280;42848;42.524;12.052;2023-01-27T12:21:03;95688.66;;;5.07;100.00
56944;BME280;42848;42.524;12.052;2023-01-27T12:23:36;95675.34;;;5.10;100.00
56944;BME280;42848;42.524;12.052;2023-01-27T12:26:06;95689.84;;;5.23;100.00
56944;BME280;42848;42.524;12.052;2023-01-27T12:28:33;95692.16;;;5.16;100.00
56944;BME280;42848;42.524;12.052;2023-01-27T12:31:29;95672.59;;;5.24;100.00
56944;BME280;42848;42.524;12.052;2023-01-27T12:33:57;95664.03;;;5.22;100.00
56944;BME280;42848;42.524;12.052;2023-01-27T12:36:24;95679.03;;;5.14;100.00
56944;BME280;42848;42.524;12.052;2023-01-27T12:38:57;95667.47;;;5.14;100.00
56944;BME280;42848;42.524;12.052;2023-01-27T12:41:27;95666.63;;;4.96;100.00
56944;BME280;42848;42.524;12.052;2023-01-27T12:44:39;95669.97;;;5.10;100.00
56944;BME280;42848;42.524;12.052;2023-01-27T12:47:02;95667.75;;;5.04;100.00
56944;BME280;42848;42.524;12.052;2023-01-27T12:49:30;95654.16;;;5.09;100.00
56944;BME280;42848;42.524;12.052;2023-01-27T12:52:00;95672.50;;;5.07;100.00
56944;BME280;42848;42.524;12.052;2023-01-27T12:54:29;95662.16;;;4.92;100.00
56944;BME280;42848;42.524;12.052;2023-01-27T12:57:02;95669.66;;;5.03;100.00
56944;BME280;42848;42.524;12.052;2023-01-27T12:59:29;95664.88;;;5.00;100.00
56944;BME280;42848;42.524;12.052;2023-01-27T13:02:14;95660.16;;;5.06;100.00
56944;BME280;42848;42.524;12.052;2023-01-27T13:04:41;95655.13;;;5.13;100.00
56944;BME280;42848;42.524;12.052;2023-01-27T13:07:14;95660.41;;;5.27;100.00
56944;BME280;42848;42.524;12.052;2023-01-27T13:12:26;95660.16;;;5.06;100.00
56944;BME280;42848;42.524;12.052;2023-01-27T13:15:19;95675.75;;;4.87;100.00
56944;BME280;42848;42.524;12.052;2023-01-27T13:17:50;95673.06;;;4.87;100.00
56944;BME280;42848;42.524;12.052;2023-01-27T13:28:54;95669.63;;;4.95;100.00
56944;BME280;42848;42.524;12.052;2023-01-27T13:31:30;95665.47;;;4.89;100.00
56944;BME280;42848;42.524;12.052;2023-01-27T13:34:07;95683.69;;;5.00;100.00
56944;BME280;42848;42.524;12.052;2023-01-27T13:37:17;95675.31;;;5.02;100.00
56944;BME280;42848;42.524;12.052;2023-01-27T13:40:04;95677.25;;;5.10;100.00
56944;BME280;42848;42.524;12.052;2023-01-27T13:45:21;95682.28;;;4.94;100.00
56944;BME280;42848;42.524;12.052;2023-01-27T13:50:34;95669.94;;;5.02;100.00
56944;BME280;42848;42.524;12.052;2023-01-27T13:53:02;95684.22;;;5.11;100.00
56944;BME280;42848;42.524;12.052;2023-01-27T14:17:56;95694.47;;;5.00;100.00
56944;BME280;42848;42.524;12.052;2023-01-27T14:20:44;95687.34;;;4.96;100.00
56944;BME280;42848;42.524;12.052;2023-01-27T14:28:53;95692.00;;;4.81;100.00
56944;BME280;42848;42.524;12.052;2023-01-27T14:37:39;95707.28;;;4.72;100.00
56944;BME280;42848;42.524;12.052;2023-01-27T14:42:58;95707.13;;;4.69;100.00
56944;BME280;42848;42.524;12.052;2023-01-27T14:45:36;95707.84;;;4.61;100.00
56944;BME280;42848;42.524;12.052;2023-01-27T14:51:04;95712.81;;;4.67;100.00
56944;BME280;42848;42.524;12.052;2023-01-27T14:56:45;95728.97;;;4.53;100.00
56944;BME280;42848;42.524;12.052;2023-01-27T14:59:39;95718.06;;;4.50;100.00
56944;BME280;42848;42.524;12.052;2023-01-27T15:02:12;95724.81;;;4.47;100.00
56944;BME280;42848;42.524;12.052;2023-01-27T15:12:59;95730.81;;;4.44;100.00
56944;BME280;42848;42.524;12.052;2023-01-27T15:21:39;95724.03;;;4.47;100.00
56944;BME280;42848;42.524;12.052;2023-01-27T15:27:07;95732.09;;;4.47;100.00
56944;BME280;42848;42.524;12.052;2023-01-27T15:29:34;95740.00;;;4.29;100.00